Time;durP1;ratioP1;P1;durP2;ratioP2;P2;SDS_P1;SDS_P2;PMS_P1;PMS_P2;Temp;Humidity;BMP_temperature;BMP_pressure;BME280_temperature;BME280_humidity;BME280_pressure;Samples;Min_cycle;Max_cycle;Signal;HPM_P1;HPM_P2
2022/09/16 04:02:35;;;;;;;1.87;1.33;;;9.80;96.30;;;;;;4974213;23;20513;-76
2022/09/16 04:05:01;;;;;;;2.50;1.10;;;9.90;96.30;;;;;;4994861;28;20971;-77
2022/09/16 04:07:26;;;;;;;2.20;1.17;;;9.90;96.30;;;;;;4994186;28;20242;-75
2022/09/16 04:09:52;;;;;;;2.13;1.30;;;9.90;96.30;;;;;;4978494;28;20696;-74
2022/09/16 04:12:17;;;;;;;5.23;1.40;;;9.90;96.30;;;;;;4978563;28;20194;-76
2022/09/16 04:15:22;;;;;;;2.80;0.90;;;9.90;96.30;;;;;;5000517;28;20190;-75
2022/09/16 04:24:41;;;;;;;6.53;2.20;;;9.90;96.30;;;;;;4978159;28;20791;-74
2022/09/16 04:27:06;;;;;;;1.97;1.20;;;9.80;96.30;;;;;;4978925;28;20500;-76
2022/09/16 04:29:32;;;;;;;2.93;1.10;;;9.90;96.30;;;;;;4984865;28;20253;-76
2022/09/16 04:31:57;;;;;;;2.43;0.83;;;9.90;96.30;;;;;;4975935;28;20205;-75
2022/09/16 04:34:23;;;;;;;3.40;1.10;;;10.00;96.30;;;;;;4976367;28;20639;-76
2022/09/16 04:36:48;;;;;;;6.07;1.10;;;10.00;96.30;;;;;;4955597;29;20183;-76
2022/09/16 04:39:14;;;;;;;1.40;1.07;;;10.10;96.30;;;;;;4956152;29;20183;-75
2022/09/16 04:41:39;;;;;;;2.23;1.30;;;10.10;96.30;;;;;;4958282;28;20221;-75
2022/09/16 04:44:04;;;;;;;1.33;1.10;;;10.10;96.30;;;;;;4937447;28;20247;-75
2022/09/16 04:46:31;;;;;;;4.90;1.27;;;10.10;96.30;;;;;;4937291;29;20586;-75
2022/09/16 04:48:58;;;;;;;2.80;1.30;;;10.10;96.30;;;;;;4944769;28;20203;-76
2022/09/16 04:51:28;;;;;;;6.57;2.03;;;10.10;96.30;;;;;;4952551;28;20439;-75
2022/09/16 04:53:55;;;;;;;4.80;1.50;;;10.00;96.30;;;;;;4944554;28;20435;-75
2022/09/16 04:56:24;;;;;;;4.57;1.60;;;10.00;96.30;;;;;;4944839;29;20859;-76
2022/09/16 04:58:52;;;;;;;1.90;1.70;;;10.10;96.30;;;;;;4945211;29;20415;-75
2022/09/16 05:01:21;;;;;;;5.97;1.30;;;10.10;96.30;;;;;;4944305;29;21006;-76
2022/09/16 05:03:49;;;;;;;7.33;1.67;;;10.10;96.30;;;;;;4940063;29;20854;-76
2022/09/16 05:06:20;;;;;;;3.83;1.83;;;10.10;96.30;;;;;;4953193;28;20422;-76
2022/09/16 05:08:45;;;;;;;6.20;1.70;;;10.10;96.30;;;;;;4956453;28;20505;-76
2022/09/16 05:11:17;;;;;;;1.93;1.57;;;10.10;96.30;;;;;;4989549;28;20532;-76
2022/09/16 05:13:43;;;;;;;4.00;2.47;;;10.00;96.30;;;;;;4990137;28;20194;-76
2022/09/16 05:16:14;;;;;;;2.90;1.70;;;10.00;96.30;;;;;;4974700;28;20894;-76
2022/09/16 05:18:41;;;;;;;3.80;2.00;;;10.10;96.30;;;;;;4989255;28;20206;-76
2022/09/16 05:21:09;;;;;;;4.70;1.60;;;10.10;96.30;;;;;;4974754;28;20429;-76
2022/09/16 05:23:35;;;;;;;2.90;1.40;;;10.20;96.30;;;;;;4941254;28;20939;-76
2022/09/16 05:26:05;;;;;;;3.30;1.77;;;10.20;96.30;;;;;;4935174;29;20462;-76
2022/09/16 05:28:31;;;;;;;3.00;1.70;;;10.20;96.30;;;;;;4935992;29;20260;-76
2022/09/16 05:31:16;;;;;;;2.10;1.40;;;10.20;96.30;;;;;;4936283;29;20522;-76
2022/09/16 05:33:44;;;;;;;3.67;1.80;;;10.30;96.30;;;;;;4937304;29;20894;-76
2022/09/16 05:36:13;;;;;;;7.73;1.70;;;10.30;96.30;;;;;;4953915;29;20430;-75
2022/09/16 05:38:38;;;;;;;2.63;1.67;;;10.30;96.30;;;;;;4953066;29;20422;-75
2022/09/16 05:41:04;;;;;;;3.83;1.77;;;10.40;96.30;;;;;;4962445;28;20549;-76
2022/09/16 05:43:31;;;;;;;2.67;1.43;;;10.40;96.30;;;;;;4974487;28;20170;-75
2022/09/16 05:45:57;;;;;;;3.63;1.40;;;10.50;96.30;;;;;;4974513;28;20406;-76
2022/09/16 05:48:23;;;;;;;3.60;1.60;;;10.50;96.30;;;;;;4974377;28;20412;-76
2022/09/16 05:50:54;;;;;;;5.90;1.70;;;10.60;96.30;;;;;;4974284;28;20212;-76
2022/09/16 05:53:20;;;;;;;5.17;1.53;;;10.70;96.30;;;;;;4958989;28;20922;-75
2022/09/16 05:56:03;;;;;;;2.27;1.80;;;10.80;96.30;;;;;;4955119;29;20460;-76
2022/09/16 05:58:30;;;;;;;1.80;1.07;;;10.80;96.30;;;;;;4952773;29;20438;-76
2022/09/16 06:00:59;;;;;;;7.53;1.63;;;10.70;96.30;;;;;;4952438;28;20545;-75
2022/09/16 06:03:26;;;;;;;6.97;1.50;;;10.60;96.30;;;;;;4954645;28;20418;-76
2022/09/16 06:05:57;;;;;;;3.20;1.53;;;10.60;96.30;;;;;;4943028;28;20493;-76
2022/09/16 06:08:23;;;;;;;5.30;2.00;;;10.60;96.30;;;;;;4954428;29;20493;-76
2022/09/16 06:10:48;;;;;;;3.63;1.17;;;10.60;96.30;;;;;;4972515;28;20552;-76
2022/09/16 06:13:14;;;;;;;2.37;1.27;;;10.50;96.30;;;;;;4988756;28;20630;-76
2022/09/16 06:15:46;;;;;;;3.37;1.33;;;10.60;96.30;;;;;;4974015;28;20186;-75
2022/09/16 06:18:14;;;;;;;1.40;1.30;;;10.60;96.30;;;;;;4967299;28;20179;-76
2022/09/16 06:20:40;;;;;;;3.40;1.00;;;10.60;96.30;;;;;;4953228;29;20521;-77
2022/09/16 06:23:05;;;;;;;3.83;1.63;;;10.50;96.30;;;;;;4954624;29;21104;-76
2022/09/16 06:25:31;;;;;;;6.60;1.23;;;10.60;96.30;;;;;;4954783;29;20187;-76
2022/09/16 06:27:57;;;;;;;3.57;1.67;;;10.60;96.30;;;;;;4954317;29;20544;-77
2022/09/16 06:30:22;;;;;;;6.33;1.57;;;10.80;96.30;;;;;;4954543;29;20458;-76
2022/09/16 06:32:48;;;;;;;4.50;1.40;;;10.80;96.30;;;;;;4954637;29;20722;-76
2022/09/16 06:35:13;;;;;;;4.10;1.30;;;10.90;96.30;;;;;;4954485;29;20171;-76
2022/09/16 06:37:39;;;;;;;7.50;1.17;;;10.90;96.30;;;;;;4953071;29;20179;-76
2022/09/16 06:40:05;;;;;;;3.40;1.03;;;10.90;96.30;;;;;;4954099;29;20209;-77
2022/09/16 06:42:30;;;;;;;5.87;1.60;;;10.90;96.30;;;;;;4973109;28;20213;-76
2022/09/16 06:44:57;;;;;;;4.90;0.90;;;10.80;96.30;;;;;;4973575;28;20414;-76
2022/09/16 06:47:22;;;;;;;2.37;1.10;;;10.80;96.30;;;;;;4973546;28;20174;-76
2022/09/16 06:49:48;;;;;;;4.87;1.10;;;11.00;96.30;;;;;;4973176;28;20476;-76
2022/09/16 06:52:13;;;;;;;3.43;1.10;;;11.20;96.30;;;;;;4988253;28;20195;-77
2022/09/16 06:54:39;;;;;;;3.67;0.87;;;11.40;96.30;;;;;;4968988;28;20646;-76
2022/09/16 06:57:04;;;;;;;3.27;1.33;;;11.40;96.30;;;;;;4954060;29;20539;-76
2022/09/16 06:59:30;;;;;;;4.60;1.07;;;11.50;96.30;;;;;;4953866;29;20670;-76
2022/09/16 07:01:55;;;;;;;3.77;1.30;;;11.80;96.30;;;;;;4953926;29;20677;-76
2022/09/16 07:04:21;;;;;;;2.57;0.80;;;12.10;96.30;;;;;;4954074;29;20190;-76
2022/09/16 07:06:49;;;;;;;4.07;1.00;;;12.10;96.30;;;;;;4953942;29;20266;-76
2022/09/16 07:09:14;;;;;;;3.97;1.07;;;12.20;96.30;;;;;;4959407;28;20198;-76
2022/09/16 07:11:40;;;;;;;2.70;0.90;;;12.20;96.30;;;;;;4973176;28;20433;-76
2022/09/16 07:14:08;;;;;;;4.07;1.13;;;12.40;96.30;;;;;;4973189;28;20189;-77
2022/09/16 07:16:33;;;;;;;3.97;1.30;;;12.70;96.30;;;;;;4988129;28;20174;-76
2022/09/16 07:18:59;;;;;;;4.87;1.23;;;12.80;96.30;;;;;;4972872;28;20469;-76
2022/09/16 07:21:28;;;;;;;4.03;1.00;;;12.80;96.30;;;;;;4973434;28;20189;-78
2022/09/16 07:23:56;;;;;;;4.43;0.77;;;12.80;96.30;;;;;;4975115;28;20199;-76
2022/09/16 07:26:27;;;;;;;6.13;0.70;;;12.90;96.30;;;;;;4972989;28;20424;-77
2022/09/16 07:28:53;;;;;;;2.40;0.90;;;12.90;96.30;;;;;;4962218;28;20422;-78
2022/09/16 07:31:23;;;;;;;3.07;1.10;;;12.60;96.30;;;;;;4953704;28;20435;-78
2022/09/16 07:33:50;;;;;;;2.13;0.70;;;12.70;96.30;;;;;;4953728;28;20398;-76
2022/09/16 07:36:19;;;;;;;6.77;1.07;;;12.50;96.30;;;;;;4956863;28;20474;-76
2022/09/16 07:38:45;;;;;;;5.60;1.07;;;12.50;96.30;;;;;;4955505;29;20430;-76
2022/09/16 07:41:16;;;;;;;31.57;1.20;;;12.90;96.30;;;;;;4963250;28;20442;-76
2022/09/16 07:43:43;;;;;;;3.73;0.90;;;13.30;96.30;;;;;;4973134;28;20895;-76
2022/09/16 07:46:11;;;;;;;5.10;1.20;;;13.20;96.30;;;;;;4989246;28;20418;-76
2022/09/16 07:48:36;;;;;;;4.20;1.00;;;12.70;96.30;;;;;;4972710;28;20835;-76
2022/09/16 07:51:09;;;;;;;2.20;0.90;;;12.20;96.30;;;;;;4972685;28;20956;-74
2022/09/16 07:53:35;;;;;;;1.93;0.60;;;11.70;96.30;;;;;;4967941;28;20183;-75
2022/09/16 07:56:07;;;;;;;1.67;0.73;;;11.40;96.30;;;;;;4950534;28;20548;-75
2022/09/16 07:58:33;;;;;;;1.27;0.80;;;11.20;96.30;;;;;;4949021;28;20494;-75
2022/09/16 08:00:59;;;;;;;2.43;0.80;;;11.20;96.30;;;;;;4955546;29;20561;-76
2022/09/16 08:03:24;;;;;;;3.07;1.83;;;11.40;96.30;;;;;;4957069;28;20717;-77
2022/09/16 08:05:50;;;;;;;3.73;1.00;;;11.90;96.30;;;;;;4956906;29;20509;-76
2022/09/16 08:08:16;;;;;;;3.70;1.40;;;12.80;96.30;;;;;;4955601;29;20552;-77
2022/09/16 08:10:42;;;;;;;2.63;1.27;;;14.00;96.30;;;;;;4974010;28;20465;-77
2022/09/16 08:13:08;;;;;;;3.77;1.17;;;15.10;96.30;;;;;;4976222;28;20542;-77
2022/09/16 08:15:34;;;;;;;2.80;1.20;;;15.70;96.30;;;;;;4976088;28;20705;-77
2022/09/16 08:17:59;;;;;;;3.50;1.00;;;15.50;96.30;;;;;;4973387;28;20418;-76
2022/09/16 08:20:25;;;;;;;4.10;1.20;;;15.90;96.30;;;;;;4956679;28;20179;-77
2022/09/16 08:22:51;;;;;;;3.33;1.23;;;16.40;96.30;;;;;;4956682;28;20238;-77
2022/09/16 08:25:17;;;;;;;2.83;1.30;;;16.60;96.30;;;;;;4956288;28;20411;-76
2022/09/16 08:27:42;;;;;;;1.67;1.00;;;15.90;96.30;;;;;;4956382;28;20422;-76
2022/09/16 08:30:09;;;;;;;3.50;1.60;;;15.20;96.30;;;;;;4958068;28;20213;-76
2022/09/16 08:32:34;;;;;;;4.00;1.10;;;14.60;96.30;;;;;;4975883;28;20205;-76
2022/09/16 08:35:00;;;;;;;1.83;1.00;;;14.40;96.30;;;;;;4975681;28;20405;-76
2022/09/16 08:37:26;;;;;;;2.37;0.90;;;14.30;96.30;;;;;;4975679;28;20221;-76
2022/09/16 08:39:51;;;;;;;5.10;1.10;;;14.10;96.30;;;;;;4975755;28;20704;-76
2022/09/16 08:42:27;;;;;;;3.60;1.20;;;13.80;96.30;;;;;;4954637;28;20191;-76
2022/09/16 08:44:59;;;;;;;2.10;0.90;;;13.90;96.30;;;;;;4937224;29;20211;-76
2022/09/16 08:48:01;;;;;;;1.70;0.90;;;14.20;96.30;;;;;;4937159;29;20462;-76
2022/09/16 08:50:31;;;;;;;2.40;1.20;;;14.00;96.30;;;;;;4936924;29;20469;-76
2022/09/16 08:53:00;;;;;;;2.40;1.00;;;13.80;96.30;;;;;;4936981;29;20912;-76
2022/09/16 08:55:31;;;;;;;3.83;1.13;;;14.00;96.30;;;;;;4939239;29;20516;-76
2022/09/16 08:58:04;;;;;;;3.30;1.43;;;14.30;96.30;;;;;;4955759;29;20407;-76
2022/09/16 09:00:31;;;;;;;1.80;0.90;;;15.30;96.30;;;;;;4943113;29;20962;-76
2022/09/16 09:03:24;;;;;;;2.30;0.77;;;16.00;96.30;;;;;;4936837;29;20419;-76
2022/09/16 09:05:55;;;;;;;2.70;0.90;;;15.70;96.30;;;;;;4936724;29;20430;-76
2022/09/16 09:08:56;;;;;;;4.20;0.87;;;15.30;96.30;;;;;;4935445;28;20864;-76
2022/09/16 09:11:37;;;;;;;4.47;1.10;;;14.90;96.30;;;;;;4918539;29;20458;-76
2022/09/16 09:14:28;;;;;;;3.23;1.00;;;14.70;96.30;;;;;;4935438;29;20506;-76
2022/09/16 09:17:08;;;;;;;2.63;1.30;;;14.70;96.30;;;;;;4936538;29;20415;-76
2022/09/16 09:19:49;;;;;;;1.87;0.97;;;15.10;96.30;;;;;;4936334;29;20431;-76
2022/09/16 09:22:57;;;;;;;1.53;0.87;;;15.60;96.30;;;;;;4936377;29;20435;-76
2022/09/16 09:25:45;;;;;;;2.90;1.10;;;16.70;96.30;;;;;;4936576;29;20407;-76
2022/09/16 09:28:47;;;;;;;2.20;1.20;;;16.60;96.30;;;;;;4936086;29;20411;-76
2022/09/16 09:31:39;;;;;;;3.77;0.90;;;16.60;96.30;;;;;;4936319;29;20470;-76
2022/09/16 09:34:30;;;;;;;2.57;1.07;;;16.30;96.30;;;;;;4936222;29;20450;-76
2022/09/16 09:37:21;;;;;;;1.10;0.73;;;15.80;96.30;;;;;;4936259;29;20753;-76
2022/09/16 09:40:07;;;;;;;1.37;0.77;;;15.50;96.30;;;;;;4936043;29;20419;-76
2022/09/16 09:42:51;;;;;;;2.03;0.80;;;15.10;96.30;;;;;;4974231;28;20797;-76
2022/09/16 09:45:27;;;;;;;2.43;1.10;;;14.70;96.30;;;;;;4974687;28;20956;-76
2022/09/16 09:48:01;;;;;;;1.90;1.03;;;15.00;96.30;;;;;;4974284;28;20413;-76
2022/09/16 09:50:41;;;;;;;2.03;0.90;;;15.60;96.30;;;;;;4974496;28;20456;-76
2022/09/16 09:53:40;;;;;;;2.00;0.90;;;15.80;96.30;;;;;;4974468;28;20420;-76
2022/09/16 09:56:19;;;;;;;2.33;0.90;;;15.40;96.30;;;;;;4966763;28;20422;-76
2022/09/16 09:58:49;;;;;;;2.70;1.00;;;15.60;96.30;;;;;;4974061;28;20917;-76
2022/09/16 10:01:15;;;;;;;3.00;1.00;;;16.90;96.30;;;;;;4988736;28;20988;-76
2022/09/16 10:03:41;;;;;;;1.07;0.70;;;17.90;96.30;;;;;;4974039;28;20457;-76
2022/09/16 10:06:09;;;;;;;1.90;0.80;;;17.70;96.30;;;;;;4974050;28;20472;-76
2022/09/16 10:08:47;;;;;;;1.53;0.83;;;18.40;96.30;;;;;;4973398;28;20235;-76
2022/09/16 10:11:19;;;;;;;7.00;1.10;;;19.60;96.30;;;;;;4954613;29;20438;-76
2022/09/16 10:13:50;;;;;;;2.37;0.80;;;18.60;96.30;;;;;;4955379;28;20495;-76
2022/09/16 10:16:19;;;;;;;4.20;1.33;;;17.10;96.30;;;;;;4954761;28;20438;-75
2022/09/16 10:18:55;;;;;;;1.83;0.80;;;15.20;96.30;;;;;;4945589;28;20510;-77
2022/09/16 10:21:20;;;;;;;3.97;0.70;;;13.60;96.30;;;;;;4944098;28;20431;-75
2022/09/16 10:23:54;;;;;;;6.87;0.70;;;13.20;96.30;;;;;;4947592;28;20415;-76
2022/09/16 10:26:22;;;;;;;1.83;0.63;;;13.20;96.30;;;;;;4954437;29;20667;-77
2022/09/16 10:29:00;;;;;;;1.07;0.70;;;13.90;96.30;;;;;;4954082;29;20417;-76
2022/09/16 10:31:35;;;;;;;5.10;1.00;;;14.80;96.30;;;;;;4954414;29;21003;-77
2022/09/16 10:34:03;;;;;;;1.10;0.60;;;15.60;96.30;;;;;;4935268;29;20523;-76
2022/09/16 10:36:32;;;;;;;1.43;0.80;;;16.50;96.30;;;;;;4935220;29;20416;-76
2022/09/16 10:39:01;;;;;;;1.50;0.63;;;17.20;96.30;;;;;;4934773;29;20427;-77
2022/09/16 10:41:34;;;;;;;4.33;1.10;;;17.80;96.30;;;;;;4955844;28;20445;-77
2022/09/16 10:44:14;;;;;;;2.27;0.80;;;18.00;96.30;;;;;;4973627;28;20417;-76
2022/09/16 10:46:54;;;;;;;3.00;0.90;;;17.90;96.30;;;;;;4973372;28;20976;-76
2022/09/16 10:49:43;;;;;;;3.40;1.10;;;17.80;96.30;;;;;;4973055;28;20551;-76
2022/09/16 10:52:22;;;;;;;3.47;1.20;;;17.00;96.30;;;;;;4958167;28;20461;-77
2022/09/16 10:54:48;;;;;;;1.63;0.80;;;16.00;96.30;;;;;;4953646;29;20437;-76
2022/09/16 10:57:30;;;;;;;1.47;0.83;;;15.50;96.30;;;;;;4962175;28;20441;-76
2022/09/16 11:00:08;;;;;;;1.37;0.70;;;14.60;96.30;;;;;;4960003;28;20957;-76
2022/09/16 11:03:04;;;;;;;3.23;0.90;;;14.10;96.30;;;;;;4954307;29;20816;-75
2022/09/16 11:05:51;;;;;;;1.87;0.70;;;15.10;96.30;;;;;;4954308;28;20763;-76
2022/09/16 11:08:54;;;;;;;1.70;0.90;;;16.50;96.30;;;;;;4953666;28;20489;-76
2022/09/16 11:11:50;;;;;;;1.43;0.80;;;17.30;96.30;;;;;;4940384;28;20538;-76
2022/09/16 11:14:40;;;;;;;2.73;0.83;;;17.90;96.30;;;;;;4953801;28;20429;-76
2022/09/16 11:17:21;;;;;;;2.53;0.80;;;17.90;96.30;;;;;;4953912;28;20418;-76
2022/09/16 11:20:24;;;;;;;1.77;0.70;;;18.40;96.30;;;;;;4968420;28;20953;-76
2022/09/16 11:23:22;;;;;;;1.50;0.80;;;18.30;96.30;;;;;;4953652;28;20469;-76
2022/09/16 11:26:13;;;;;;;2.13;0.70;;;16.90;96.30;;;;;;4953782;28;20825;-75
2022/09/16 11:29:23;;;;;;;1.90;0.70;;;14.60;96.30;;;;;;4953667;28;20917;-75
2022/09/16 11:32:34;;;;;;;1.10;0.60;;;13.20;96.30;;;;;;4954670;28;20453;-76
2022/09/16 11:35:24;;;;;;;1.83;0.60;;;12.80;96.30;;;;;;4939761;28;20998;-76
2022/09/16 11:37:57;;;;;;;1.63;0.60;;;12.80;96.30;;;;;;4976819;28;20432;-76
2022/09/16 11:41:05;;;;;;;3.17;0.60;;;12.80;96.30;;;;;;4975317;28;20407;-77
2022/09/16 11:44:10;;;;;;;1.30;0.73;;;12.70;96.30;;;;;;4956499;29;20476;-77
2022/09/16 11:46:41;;;;;;;1.50;0.73;;;12.70;96.30;;;;;;4957930;29;20415;-76
2022/09/16 11:49:44;;;;;;;3.00;0.70;;;14.00;96.30;;;;;;4956566;29;20897;-76
2022/09/16 11:52:33;;;;;;;1.30;0.80;;;15.10;96.30;;;;;;4957597;28;20433;-77
2022/09/16 11:55:21;;;;;;;6.10;1.00;;;15.60;96.30;;;;;;4957637;28;20425;-76
2022/09/16 11:57:52;;;;;;;2.97;0.80;;;15.70;96.30;;;;;;4957264;28;20410;-76
2022/09/16 12:00:18;;;;;;;3.10;1.43;;;15.40;96.30;;;;;;4955617;28;20433;-76
2022/09/16 12:03:11;;;;;;;1.63;1.27;;;16.00;96.30;;;;;;4947269;29;20439;-77
2022/09/16 12:05:52;;;;;;;3.30;2.23;;;16.60;96.30;;;;;;4955333;29;20195;-77
2022/09/16 12:08:54;;;;;;;2.43;0.70;;;16.70;96.30;;;;;;4955117;29;20414;-77
2022/09/16 12:11:39;;;;;;;1.97;0.80;;;16.10;96.30;;;;;;4956198;29;20438;-75
2022/09/16 12:14:36;;;;;;;2.10;0.90;;;16.10;96.30;;;;;;4957264;28;20765;-76
2022/09/16 12:17:11;;;;;;;2.07;1.00;;;15.90;96.30;;;;;;4956820;28;20441;-76
2022/09/16 12:19:49;;;;;;;3.10;1.00;;;15.30;96.30;;;;;;4956953;28;20742;-76
2022/09/16 12:22:28;;;;;;;6.00;0.90;;;14.50;96.30;;;;;;4956772;28;20427;-76
2022/09/16 12:25:11;;;;;;;2.10;0.80;;;14.00;96.30;;;;;;4956957;28;20465;-76
2022/09/16 12:27:49;;;;;;;1.00;0.70;;;13.80;96.30;;;;;;4956518;29;20403;-76
2022/09/16 12:30:20;;;;;;;2.33;0.60;;;13.80;96.30;;;;;;4956435;28;20469;-77
2022/09/16 12:33:19;;;;;;;1.43;0.70;;;13.80;96.30;;;;;;4955364;29;20919;-76
2022/09/16 12:35:56;;;;;;;1.50;0.80;;;13.90;96.30;;;;;;4955191;28;20410;-76
2022/09/16 12:38:21;;;;;;;1.43;0.60;;;13.70;96.30;;;;;;4955007;29;20502;-76
2022/09/16 12:41:04;;;;;;;1.10;0.60;;;13.60;96.30;;;;;;4961401;28;20878;-76
2022/09/16 12:44:00;;;;;;;0.90;0.60;;;13.70;96.30;;;;;;4975417;28;20209;-77
2022/09/16 12:46:47;;;;;;;1.87;0.60;;;14.10;96.30;;;;;;4975214;28;20434;-76
2022/09/16 12:49:37;;;;;;;3.13;0.70;;;14.40;96.30;;;;;;4958204;28;20516;-76
2022/09/16 12:52:16;;;;;;;0.87;0.60;;;14.50;96.30;;;;;;4956158;28;20429;-77
2022/09/16 12:55:01;;;;;;;1.53;0.57;;;15.50;96.30;;;;;;4956192;28;20477;-76
2022/09/16 12:57:57;;;;;;;1.40;0.60;;;16.20;96.30;;;;;;4971035;28;20414;-76
2022/09/16 13:01:00;;;;;;;0.80;0.60;;;15.80;96.30;;;;;;4955945;28;20806;-77
2022/09/16 13:03:28;;;;;;;1.07;0.60;;;15.60;96.30;;;;;;4956079;28;20441;-76
2022/09/16 13:05:57;;;;;;;1.53;0.60;;;15.00;96.30;;;;;;4970793;28;20418;-77
2022/09/16 13:08:29;;;;;;;5.57;0.60;;;14.10;96.30;;;;;;4955792;28;20410;-78
2022/09/16 13:11:04;;;;;;;6.00;0.70;;;14.00;96.30;;;;;;4955438;28;20497;-77
2022/09/16 13:13:38;;;;;;;1.90;0.90;;;13.60;96.30;;;;;;4954754;29;20768;-75
2022/09/16 13:16:06;;;;;;;3.60;0.67;;;13.30;96.30;;;;;;4955346;29;20497;-75
2022/09/16 13:18:39;;;;;;;1.03;0.70;;;13.20;96.30;;;;;;4953425;29;20434;-76
2022/09/16 13:21:12;;;;;;;1.57;1.00;;;13.40;96.30;;;;;;4955537;28;20489;-76
2022/09/16 13:23:44;;;;;;;2.10;0.70;;;13.90;96.30;;;;;;4955262;29;20418;-75
2022/09/16 13:26:10;;;;;;;3.67;0.83;;;14.70;96.30;;;;;;4956227;28;20513;-76
2022/09/16 13:28:35;;;;;;;1.57;0.70;;;14.60;96.30;;;;;;4979854;28;20484;-75
2022/09/16 13:31:10;;;;;;;1.77;0.70;;;14.40;96.30;;;;;;4968229;28;20976;-75
2022/09/16 13:33:37;;;;;;;1.03;0.80;;;14.50;96.30;;;;;;4974722;28;20173;-75
2022/09/16 13:36:22;;;;;;;2.33;0.87;;;15.10;96.30;;;;;;4974612;28;20406;-76
2022/09/16 13:38:53;;;;;;;1.47;0.80;;;15.50;96.30;;;;;;4970450;28;20422;-76
2022/09/16 13:41:35;;;;;;;1.60;0.80;;;15.90;96.30;;;;;;4971707;28;20453;-76
2022/09/16 13:44:22;;;;;;;2.10;0.80;;;16.00;96.30;;;;;;4946060;29;20790;-75
2022/09/16 13:46:48;;;;;;;2.40;1.47;;;15.10;96.30;;;;;;4954987;28;20970;-76
2022/09/16 13:49:23;;;;;;;2.03;0.60;;;14.60;96.30;;;;;;4954454;29;20462;-75
2022/09/16 13:51:50;;;;;;;1.03;0.77;;;14.20;96.30;;;;;;4953869;28;20190;-76
2022/09/16 13:54:24;;;;;;;2.23;0.77;;;14.10;96.30;;;;;;4954246;28;21001;-75
2022/09/16 13:57:16;;;;;;;1.40;0.73;;;14.10;96.30;;;;;;4955087;28;20434;-75
2022/09/16 14:00:00;;;;;;;2.13;0.70;;;13.90;96.30;;;;;;4948150;28;20431;-73
2022/09/16 14:03:03;;;;;;;1.30;0.70;;;14.30;96.30;;;;;;4948145;28;20450;-74
2022/09/16 14:06:05;;;;;;;2.50;1.00;;;14.30;96.30;;;;;;4944759;29;20418;-74
2022/09/16 14:08:45;;;;;;;2.03;0.70;;;14.00;96.30;;;;;;4945229;29;20903;-73
2022/09/16 14:11:34;;;;;;;2.07;0.70;;;13.70;96.30;;;;;;4944639;29;20545;-74
2022/09/16 14:14:10;;;;;;;1.10;0.70;;;13.50;96.30;;;;;;4946573;29;20419;-75
2022/09/16 14:16:40;;;;;;;1.97;0.77;;;13.40;96.30;;;;;;4943713;28;20442;-74
2022/09/16 14:19:24;;;;;;;1.60;0.60;;;13.30;96.30;;;;;;4943558;29;20411;-74
2022/09/16 14:22:12;;;;;;;1.00;0.60;;;13.50;96.30;;;;;;4945778;29;20496;-75
2022/09/16 14:24:40;;;;;;;2.33;0.90;;;13.60;96.30;;;;;;4945635;29;20421;-75
2022/09/16 14:27:25;;;;;;;2.10;0.90;;;13.80;96.30;;;;;;4946491;29;20797;-76
2022/09/16 14:29:59;;;;;;;4.50;0.90;;;14.00;96.30;;;;;;4956399;28;20984;-75
2022/09/16 14:32:28;;;;;;;1.63;0.87;;;13.80;96.30;;;;;;4957286;28;20438;-76
2022/09/16 14:34:58;;;;;;;1.60;0.83;;;13.70;96.30;;;;;;4954225;28;20411;-75
2022/09/16 14:37:27;;;;;;;1.57;0.87;;;13.70;96.30;;;;;;4954470;28;20403;-76
2022/09/16 14:39:54;;;;;;;2.50;1.00;;;13.40;96.30;;;;;;4968788;28;21005;-76
2022/09/16 14:42:22;;;;;;;2.20;0.97;;;13.20;96.30;;;;;;4954067;28;20446;-76
2022/09/16 14:44:53;;;;;;;1.23;0.90;;;13.20;96.30;;;;;;4954167;29;20453;-77
2022/09/16 14:47:38;;;;;;;1.70;1.10;;;13.40;96.30;;;;;;4954169;28;20414;-76
2022/09/16 14:50:12;;;;;;;2.60;1.50;;;13.50;96.30;;;;;;4952664;29;20458;-77
2022/09/16 14:52:38;;;;;;;2.60;0.90;;;13.60;96.30;;;;;;4954196;28;20481;-77
2022/09/16 14:55:19;;;;;;;3.90;1.30;;;13.50;96.30;;;;;;4954027;28;20418;-78
2022/09/16 14:57:44;;;;;;;1.90;1.27;;;13.30;96.30;;;;;;4953995;28;20263;-77
2022/09/16 15:00:15;;;;;;;4.10;1.13;;;13.20;96.30;;;;;;4953792;29;20501;-76
2022/09/16 15:03:08;;;;;;;3.97;1.57;;;13.10;96.30;;;;;;4954158;28;20194;-76
2022/09/16 15:05:34;;;;;;;2.63;1.10;;;12.70;96.30;;;;;;4952444;28;20414;-75
2022/09/16 15:08:22;;;;;;;2.57;1.27;;;12.50;96.30;;;;;;4955027;28;20525;-77
2022/09/16 15:10:52;;;;;;;2.23;1.27;;;12.60;96.30;;;;;;4969616;28;20470;-77
2022/09/16 15:13:20;;;;;;;1.40;1.10;;;13.10;96.30;;;;;;4962155;28;20513;-77
2022/09/16 15:15:56;;;;;;;3.67;1.27;;;13.60;96.30;;;;;;4952389;28;20454;-77
2022/09/16 15:18:37;;;;;;;1.97;1.20;;;13.70;96.30;;;;;;4962025;28;20477;-77
2022/09/16 15:21:17;;;;;;;3.40;1.10;;;13.80;96.30;;;;;;4965001;28;20440;-77
2022/09/16 15:23:46;;;;;;;6.20;1.20;;;13.90;96.30;;;;;;4973179;28;20955;-77
2022/09/16 15:26:13;;;;;;;1.67;1.10;;;13.70;96.30;;;;;;4934380;29;20416;-78
2022/09/16 15:28:54;;;;;;;3.00;1.47;;;13.40;96.30;;;;;;4934478;29;20415;-77
2022/09/16 15:31:30;;;;;;;2.90;1.23;;;13.40;96.30;;;;;;4934409;29;20496;-78
2022/09/16 15:33:58;;;;;;;1.40;1.00;;;13.70;96.30;;;;;;4961168;28;20422;-77
2022/09/16 15:36:38;;;;;;;1.47;0.93;;;13.90;96.30;;;;;;4972711;28;20428;-77
2022/09/16 15:39:20;;;;;;;1.83;1.00;;;14.40;96.30;;;;;;4955313;28;20419;-78
2022/09/16 15:41:45;;;;;;;3.63;0.90;;;14.30;96.30;;;;;;4961055;28;20498;-77
2022/09/16 15:44:24;;;;;;;0.80;0.60;;;14.20;96.30;;;;;;4968078;28;20418;-77
2022/09/16 15:46:49;;;;;;;1.20;0.80;;;14.00;96.30;;;;;;4973011;28;20233;-77
2022/09/16 15:49:18;;;;;;;4.93;0.73;;;13.60;96.30;;;;;;4972409;28;20414;-77
2022/09/16 15:51:46;;;;;;;1.43;0.90;;;13.20;96.30;;;;;;4987761;28;20229;-78
2022/09/16 15:54:18;;;;;;;1.27;0.90;;;13.10;96.30;;;;;;4972730;28;20964;-78
2022/09/16 15:57:01;;;;;;;1.67;1.20;;;13.20;96.30;;;;;;4953235;28;20454;-76
2022/09/16 15:59:41;;;;;;;1.20;0.70;;;13.50;96.30;;;;;;4949556;28;20774;-76
2022/09/16 16:02:35;;;;;;;2.13;0.90;;;13.80;96.30;;;;;;4952712;28;20462;-76
2022/09/16 16:05:14;;;;;;;3.53;0.77;;;13.70;96.30;;;;;;4947968;28;20493;-77
2022/09/16 16:07:53;;;;;;;2.80;1.97;;;13.50;96.30;;;;;;4953017;28;20410;-77
2022/09/16 16:10:24;;;;;;;1.17;0.77;;;13.60;96.30;;;;;;4964870;28;20812;-77
2022/09/16 16:12:53;;;;;;;1.40;0.83;;;13.50;96.30;;;;;;4953352;28;20415;-75
2022/09/16 16:15:38;;;;;;;2.47;1.57;;;13.50;96.30;;;;;;4955945;28;20898;-77
2022/09/16 16:18:07;;;;;;;1.20;0.77;;;13.30;96.30;;;;;;4965732;28;20764;-78
2022/09/16 16:25:43;;;;;;;2.90;1.07;;;13.00;96.30;;;;;;6104387;23;20444;-78
2022/09/16 16:28:09;;;;;;;1.33;0.73;;;12.90;96.30;;;;;;4956418;28;20952;-79
2022/09/16 16:30:35;;;;;;;1.70;0.93;;;12.80;96.30;;;;;;4944523;28;20744;-79
2022/09/16 16:33:00;;;;;;;1.83;0.80;;;12.60;96.30;;;;;;4921920;29;20425;-78
2022/09/16 16:35:26;;;;;;;3.63;0.80;;;12.50;96.30;;;;;;4920980;29;20173;-78
2022/09/16 16:37:51;;;;;;;1.90;0.90;;;12.30;96.30;;;;;;4921785;29;20278;-79
2022/09/16 16:40:18;;;;;;;2.40;1.00;;;12.20;96.30;;;;;;4921455;29;20184;-78
2022/09/16 16:42:44;;;;;;;1.30;0.83;;;12.10;96.30;;;;;;4922712;29;20287;-77
2022/09/16 16:45:12;;;;;;;3.70;0.90;;;12.00;96.30;;;;;;4922038;29;20502;-78
2022/09/16 16:47:38;;;;;;;1.10;0.83;;;11.80;96.30;;;;;;4921067;29;20184;-77
2022/09/16 16:50:04;;;;;;;3.33;0.90;;;11.70;96.30;;;;;;4919374;29;20529;-77
2022/09/16 16:52:29;;;;;;;1.97;1.00;;;11.50;96.30;;;;;;4919585;29;20436;-77
2022/09/16 16:54:55;;;;;;;2.47;0.87;;;11.40;96.30;;;;;;4930188;29;20228;-77
2022/09/16 16:57:20;;;;;;;1.20;0.73;;;11.30;96.30;;;;;;4939721;29;20554;-77
2022/09/16 16:59:46;;;;;;;2.27;0.80;;;11.20;96.30;;;;;;4935145;29;20196;-78
2022/09/16 17:02:13;;;;;;;1.50;0.70;;;11.10;96.30;;;;;;4929156;29;20196;-79
2022/09/16 17:04:39;;;;;;;1.50;0.90;;;11.00;96.30;;;;;;4937935;29;20639;-77
2022/09/16 17:07:04;;;;;;;4.90;1.00;;;10.90;96.30;;;;;;4937670;29;20914;-78
2022/09/16 17:09:30;;;;;;;1.60;0.80;;;10.80;96.30;;;;;;4936735;29;20238;-79
2022/09/16 17:11:57;;;;;;;3.90;0.90;;;10.80;96.30;;;;;;4936790;29;20195;-78
2022/09/16 17:14:25;;;;;;;3.23;0.90;;;10.70;96.30;;;;;;4936797;29;20180;-78
2022/09/16 17:16:53;;;;;;;1.40;0.93;;;10.70;96.30;;;;;;4937432;29;20416;-78
2022/09/16 17:19:20;;;;;;;4.93;1.63;;;10.70;96.30;;;;;;4936104;29;20447;-80
2022/09/16 17:21:46;;;;;;;2.23;1.00;;;10.60;96.30;;;;;;4937828;29;20542;-78
2022/09/16 17:24:12;;;;;;;1.87;1.13;;;10.50;96.30;;;;;;4927396;29;20496;-78
2022/09/16 17:26:37;;;;;;;2.23;1.10;;;10.40;96.30;;;;;;4918250;29;20997;-79
2022/09/16 17:29:04;;;;;;;4.63;0.97;;;10.30;96.30;;;;;;4926723;29;20520;-81
2022/09/16 17:31:31;;;;;;;1.97;1.20;;;10.10;96.30;;;;;;4937653;29;20278;-78
2022/09/16 17:34:04;;;;;;;1.20;0.80;;;10.10;96.30;;;;;;4937497;29;20483;-78
2022/09/16 17:36:33;;;;;;;2.10;1.07;;;10.10;96.30;;;;;;4936548;29;20408;-77